createdAt,value
2022-10-06T00:04:09.976Z,10.29
2022-10-06T00:09:12.936Z,10.27
2022-10-06T00:14:15.851Z,10.24
2022-10-06T00:19:18.741Z,10.20
2022-10-06T00:24:21.646Z,10.16
2022-10-06T00:29:24.663Z,10.11
2022-10-06T00:34:27.659Z,10.06
2022-10-06T00:39:30.563Z,10.01
2022-10-06T00:44:33.363Z,9.98
2022-10-06T00:49:38.250Z,9.96
2022-10-06T00:54:41.733Z,9.94
2022-10-06T00:59:44.737Z,9.90
2022-10-06T01:04:58.304Z,9.89
2022-10-06T01:10:01.097Z,9.88
2022-10-06T01:15:05.086Z,9.87
2022-10-06T01:20:15.385Z,9.86
2022-10-06T01:25:19.530Z,9.86
2022-10-06T01:30:33.395Z,9.86
2022-10-06T01:35:36.298Z,9.84
2022-10-06T01:40:39.102Z,9.80
2022-10-06T01:45:42.003Z,9.77
2022-10-06T01:50:44.911Z,9.77
2022-10-06T01:55:48.016Z,9.78
2022-10-06T02:00:51.171Z,9.77
2022-10-06T02:05:57.333Z,9.75
2022-10-06T02:11:05.844Z,9.73
2022-10-06T02:16:09.616Z,9.72
2022-10-06T02:21:18.573Z,9.70
2022-10-06T02:26:21.516Z,9.69
2022-10-06T02:31:24.559Z,9.68
2022-10-06T02:36:27.840Z,9.66
2022-10-06T02:41:31.256Z,9.63
2022-10-06T02:46:34.342Z,9.62
2022-10-06T02:51:37.374Z,9.62
2022-10-06T02:56:40.273Z,9.60
2022-10-06T03:01:43.316Z,9.57
2022-10-06T03:06:46.488Z,9.55
2022-10-06T03:11:49.494Z,9.53
2022-10-06T03:16:52.816Z,9.53
2022-10-06T03:21:55.602Z,9.52
2022-10-06T03:26:58.616Z,9.50
2022-10-06T03:32:01.379Z,9.47
2022-10-06T03:37:04.326Z,9.43
2022-10-06T03:42:07.226Z,9.42
2022-10-06T03:47:14.574Z,9.40
2022-10-06T03:52:25.064Z,9.39
2022-10-06T03:57:28.947Z,9.36
2022-10-06T04:02:31.886Z,9.35
2022-10-06T04:07:34.854Z,9.35
2022-10-06T04:12:37.760Z,9.35
2022-10-06T04:17:40.662Z,9.39
2022-10-06T04:22:43.576Z,9.42
2022-10-06T04:27:46.469Z,9.42
2022-10-06T04:32:49.274Z,9.44
2022-10-06T04:37:53.095Z,9.45
2022-10-06T04:42:56.468Z,9.48
2022-10-06T04:47:59.320Z,9.58
2022-10-06T04:53:02.218Z,9.75
2022-10-06T04:58:05.120Z,9.91
2022-10-06T05:03:08.026Z,10.06
2022-10-06T05:08:10.940Z,10.32
2022-10-06T05:13:14.472Z,10.67
2022-10-06T05:18:17.352Z,10.73
2022-10-06T05:23:24.358Z,10.73
2022-10-06T05:28:30.305Z,10.82
2022-10-06T05:33:35.696Z,11.02
2022-10-06T05:38:39.208Z,11.26
2022-10-06T05:43:42.829Z,11.35
2022-10-06T05:49:10.526Z,11.40
2022-10-06T05:54:14.545Z,11.43
2022-10-06T05:59:17.462Z,11.47
2022-10-06T06:04:20.666Z,11.51
2022-10-06T06:09:23.766Z,11.54
2022-10-06T06:14:45.411Z,11.60
2022-10-06T06:19:48.556Z,11.72
2022-10-06T06:24:51.381Z,11.89
2022-10-06T06:29:54.326Z,12.10
2022-10-06T06:34:57.546Z,12.35
2022-10-06T06:40:00.449Z,12.66
2022-10-06T06:45:03.550Z,13.18
2022-10-06T06:50:10.541Z,15.07
2022-10-06T06:55:15.257Z,16.86
2022-10-06T07:00:18.304Z,18.40
2022-10-06T07:05:21.516Z,19.72
2022-10-06T07:10:27.799Z,20.58
2022-10-06T07:15:52.599Z,21.24
2022-10-06T07:21:14.466Z,21.62
2022-10-06T07:26:20.336Z,22.17
2022-10-06T07:31:23.189Z,22.58
2022-10-06T07:36:26.146Z,22.77
2022-10-06T07:41:31.559Z,22.83
2022-10-06T07:46:34.375Z,22.70
2022-10-06T07:51:37.321Z,22.55
2022-10-06T07:56:40.325Z,21.81
2022-10-06T08:01:46.359Z,20.77
2022-10-06T08:06:49.714Z,19.99
2022-10-06T08:11:53.128Z,20.47
2022-10-06T08:16:56.034Z,20.96
2022-10-06T08:22:02.436Z,20.63
2022-10-06T08:27:09.930Z,20.11
2022-10-06T08:32:12.834Z,19.71
2022-10-06T08:37:20.312Z,19.54
2022-10-06T08:42:33.362Z,19.26
2022-10-06T08:47:37.181Z,18.96
2022-10-06T08:52:52.419Z,18.77
2022-10-06T08:58:13.953Z,18.74
2022-10-06T09:03:24.128Z,18.80
2022-10-06T09:08:58.667Z,18.70
2022-10-06T09:14:12.941Z,18.54
2022-10-06T09:19:24.796Z,18.56
2022-10-06T09:24:47.580Z,18.69
2022-10-06T09:29:51.677Z,18.85
2022-10-06T09:34:57.502Z,18.96
2022-10-06T09:40:00.430Z,18.94
2022-10-06T09:45:06.768Z,18.90
2022-10-06T09:50:12.398Z,18.86
2022-10-06T09:55:19.387Z,18.99
2022-10-06T10:00:48.242Z,19.18
2022-10-06T10:05:55.052Z,19.11
2022-10-06T10:11:28.600Z,19.03
2022-10-06T10:16:35.753Z,18.78
2022-10-06T10:21:41.386Z,18.59
2022-10-06T10:26:55.349Z,18.64
2022-10-06T10:32:13.012Z,18.52
2022-10-06T10:37:37.407Z,18.29
2022-10-06T10:42:45.672Z,18.39
2022-10-06T10:47:49.565Z,18.57
2022-10-06T10:52:57.401Z,18.82
2022-10-06T10:58:11.960Z,19.17
2022-10-06T11:03:14.758Z,19.19
2022-10-06T11:08:29.954Z,19.16
2022-10-06T11:13:38.488Z,18.80
2022-10-06T11:19:20.816Z,18.31
2022-10-06T11:24:31.990Z,17.76
2022-10-06T11:29:40.859Z,17.40
2022-10-06T11:34:48.346Z,17.12
2022-10-06T11:39:58.714Z,17.06
2022-10-06T11:45:14.043Z,17.43
2022-10-06T11:50:32.208Z,17.81
2022-10-06T11:55:35.112Z,17.82
2022-10-06T12:00:38.016Z,17.63
2022-10-06T12:05:57.264Z,17.42
2022-10-06T12:11:03.071Z,17.24
2022-10-06T12:22:00.041Z,17.38
2022-10-06T12:27:24.987Z,17.63
2022-10-06T12:32:53.712Z,17.59
2022-10-06T12:38:00.645Z,17.59
2022-10-06T12:43:18.361Z,17.56
2022-10-06T12:48:23.927Z,17.62
2022-10-06T12:53:36.333Z,17.73
2022-10-06T12:58:39.903Z,17.83
2022-10-06T13:03:47.999Z,17.86
2022-10-06T13:09:14.155Z,17.86
2022-10-06T13:14:17.458Z,17.74
2022-10-06T13:19:28.442Z,17.66
2022-10-06T13:24:31.481Z,17.76
2022-10-06T13:29:34.466Z,17.83
2022-10-06T13:34:43.433Z,17.88
2022-10-06T13:39:46.796Z,17.95
2022-10-06T13:45:03.144Z,17.88
2022-10-06T13:50:07.829Z,17.73
2022-10-06T13:55:27.187Z,17.67
2022-10-06T14:00:32.380Z,17.53
2022-10-06T14:05:41.917Z,17.38
2022-10-06T14:10:52.607Z,17.22
2022-10-06T14:16:00.671Z,17.03
2022-10-06T14:21:19.282Z,16.89
2022-10-06T14:26:31.313Z,16.82
2022-10-06T14:31:35.609Z,16.78
2022-10-06T14:36:38.519Z,16.73
2022-10-06T14:41:42.072Z,16.64
2022-10-06T14:46:49.377Z,16.48
2022-10-06T14:51:56.471Z,16.31
2022-10-06T14:56:59.476Z,16.12
2022-10-06T15:02:03.304Z,15.91
2022-10-06T15:07:25.151Z,15.69
2022-10-06T15:12:33.114Z,15.46
2022-10-06T15:17:37.925Z,15.25
2022-10-06T15:22:41.972Z,15.05
2022-10-06T15:28:03.541Z,14.86
2022-10-06T15:33:06.910Z,14.65
2022-10-06T15:38:09.924Z,14.46
2022-10-06T15:43:12.822Z,14.29
2022-10-06T15:48:15.725Z,14.12
2022-10-06T15:53:18.941Z,13.93
2022-10-06T15:58:22.795Z,13.70
2022-10-06T16:03:40.971Z,13.46
2022-10-06T16:08:44.339Z,13.19
2022-10-06T16:13:52.054Z,12.95
2022-10-06T16:18:55.165Z,12.70
2022-10-06T16:24:00.750Z,12.47
2022-10-06T16:29:04.561Z,12.22
2022-10-06T16:34:08.072Z,11.99
2022-10-06T16:39:16.067Z,11.77
2022-10-06T16:44:19.207Z,11.59
2022-10-06T16:49:24.654Z,11.42
2022-10-06T16:54:30.649Z,11.27
2022-10-06T16:59:33.553Z,11.14
2022-10-06T17:04:37.070Z,11.03
2022-10-06T17:09:55.845Z,10.91
2022-10-06T17:15:02.849Z,10.79
2022-10-06T17:20:06.391Z,10.69
2022-10-06T17:25:09.783Z,10.59
2022-10-06T17:30:15.043Z,10.49
2022-10-06T17:35:19.112Z,10.45
2022-10-06T17:40:21.978Z,10.41
2022-10-06T17:45:25.958Z,10.39
2022-10-06T17:50:29.013Z,10.34
2022-10-06T17:55:31.916Z,10.26
2022-10-06T18:00:34.927Z,10.16
2022-10-06T18:05:39.262Z,10.06
2022-10-06T18:11:35.625Z,9.96
2022-10-06T18:16:39.728Z,9.82
2022-10-06T18:21:44.710Z,9.70
2022-10-06T18:26:50.026Z,9.62
2022-10-06T18:31:53.896Z,9.53
2022-10-06T18:36:56.894Z,9.44
2022-10-06T18:42:03.043Z,9.37
2022-10-06T18:47:24.618Z,9.31
2022-10-06T18:52:27.623Z,9.22
2022-10-06T18:57:30.531Z,9.15
2022-10-06T19:02:33.346Z,9.08
2022-10-06T19:07:36.242Z,9.00
2022-10-06T19:12:39.243Z,8.94
2022-10-06T19:17:45.830Z,8.88
2022-10-06T19:22:48.636Z,8.81
2022-10-06T19:27:54.509Z,8.75
2022-10-06T19:32:57.438Z,8.68
2022-10-06T19:38:00.318Z,8.62
2022-10-06T19:43:03.258Z,8.57
2022-10-06T19:48:06.122Z,8.51
2022-10-06T19:53:09.030Z,8.43
2022-10-06T19:58:11.827Z,8.37
2022-10-06T20:03:14.561Z,8.34
2022-10-06T20:08:17.891Z,8.32
2022-10-06T20:13:20.645Z,8.28
2022-10-06T20:18:25.593Z,8.25
2022-10-06T20:23:28.397Z,8.24
2022-10-06T20:28:33.875Z,8.24
2022-10-06T20:33:36.868Z,8.23
2022-10-06T20:38:59.329Z,8.22
2022-10-06T20:44:04.075Z,8.18
2022-10-06T20:49:09.644Z,8.13
2022-10-06T20:54:14.121Z,8.08
2022-10-06T20:59:18.425Z,8.06
2022-10-06T21:04:22.050Z,8.07
2022-10-06T21:09:25.071Z,8.09
2022-10-06T21:14:28.373Z,8.10
2022-10-06T21:19:31.789Z,8.06
2022-10-06T21:24:34.811Z,8.02
2022-10-06T21:29:38.206Z,8.00
2022-10-06T21:34:41.212Z,7.98
2022-10-06T21:39:44.118Z,7.98
2022-10-06T21:44:47.121Z,7.99
2022-10-06T21:49:50.025Z,7.98
2022-10-06T21:54:53.058Z,7.95
2022-10-06T21:59:55.936Z,7.92
2022-10-06T22:04:59.148Z,7.91
2022-10-06T22:10:02.271Z,7.91
2022-10-06T22:15:05.879Z,7.91
2022-10-06T22:20:09.577Z,7.88
2022-10-06T22:25:12.504Z,7.88
2022-10-06T22:30:15.407Z,7.84
2022-10-06T22:35:18.314Z,7.81
2022-10-06T22:40:21.214Z,7.79
2022-10-06T22:45:24.227Z,7.76
2022-10-06T22:50:27.132Z,7.71
2022-10-06T22:55:30.028Z,7.64
2022-10-06T23:00:33.123Z,7.60
2022-10-06T23:05:37.303Z,7.54
2022-10-06T23:10:40.175Z,7.49
2022-10-06T23:15:43.810Z,7.45
2022-10-06T23:20:46.700Z,7.42
2022-10-06T23:25:49.606Z,7.42
2022-10-06T23:30:52.507Z,7.42
2022-10-06T23:35:57.871Z,7.43
2022-10-06T23:41:00.978Z,7.41
2022-10-06T23:46:04.528Z,7.37
2022-10-06T23:51:13.520Z,7.33
2022-10-06T23:56:16.653Z,7.26
